sensor_id;sensor_type;location;lat;lon;timestamp;pressure;altitude;pressure_sealevel;temperature;humidity
38612;BME280;24368;52.156;20.788;2024-03-17T00:04:00;100678.08;;;7.30;77.45
38612;BME280;24368;52.156;20.788;2024-03-17T00:09:01;100682.08;;;7.25;78.10
38612;BME280;24368;52.156;20.788;2024-03-17T00:14:07;100688.81;;;7.19;79.19
38612;BME280;24368;52.156;20.788;2024-03-17T00:19:08;100699.38;;;7.08;79.39
38612;BME280;24368;52.156;20.788;2024-03-17T00:24:09;100700.30;;;7.00;76.17
38612;BME280;24368;52.156;20.788;2024-03-17T00:29:11;100694.27;;;6.94;75.02
38612;BME280;24368;52.156;20.788;2024-03-17T00:34:12;100697.20;;;6.89;74.46
38612;BME280;24368;52.156;20.788;2024-03-17T00:39:13;100693.86;;;6.86;73.62
38612;BME280;24368;52.156;20.788;2024-03-17T00:44:15;100693.88;;;6.84;72.60
38612;BME280;24368;52.156;20.788;2024-03-17T00:49:17;100697.57;;;6.85;72.26
38612;BME280;24368;52.156;20.788;2024-03-17T00:54:18;100704.62;;;6.79;72.24
38612;BME280;24368;52.156;20.788;2024-03-17T00:59:19;100706.35;;;6.78;72.39
38612;BME280;24368;52.156;20.788;2024-03-17T01:04:20;100702.83;;;6.69;72.49
38612;BME280;24368;52.156;20.788;2024-03-17T01:09:22;100705.33;;;6.58;72.60
38612;BME280;24368;52.156;20.788;2024-03-17T01:14:24;100701.49;;;6.47;73.49
38612;BME280;24368;52.156;20.788;2024-03-17T01:19:25;100700.04;;;6.35;74.24
38612;BME280;24368;52.156;20.788;2024-03-17T01:24:49;100704.17;;;6.22;74.94
38612;BME280;24368;52.156;20.788;2024-03-17T01:29:51;100700.80;;;6.15;75.71
38612;BME280;24368;52.156;20.788;2024-03-17T01:35:11;100702.08;;;6.06;76.28
38612;BME280;24368;52.156;20.788;2024-03-17T01:40:14;100701.13;;;6.09;76.46
38612;BME280;24368;52.156;20.788;2024-03-17T01:50:21;100705.81;;;6.23;76.12
38612;BME280;24368;52.156;20.788;2024-03-17T01:55:26;100707.75;;;6.30;75.86
38612;BME280;24368;52.156;20.788;2024-03-17T02:00:29;100706.10;;;6.21;75.67
38612;BME280;24368;52.156;20.788;2024-03-17T02:05:33;100707.56;;;6.22;76.07
38612;BME280;24368;52.156;20.788;2024-03-17T02:10:37;100713.14;;;6.17;76.40
38612;BME280;24368;52.156;20.788;2024-03-17T02:15:39;100716.05;;;6.13;76.81
38612;BME280;24368;52.156;20.788;2024-03-17T02:20:43;100720.58;;;6.06;77.55
38612;BME280;24368;52.156;20.788;2024-03-17T02:26:05;100721.80;;;6.00;77.87
38612;BME280;24368;52.156;20.788;2024-03-17T02:31:09;100723.72;;;5.92;78.08
38612;BME280;24368;52.156;20.788;2024-03-17T02:36:12;100729.77;;;5.92;77.64
38612;BME280;24368;52.156;20.788;2024-03-17T02:41:14;100735.40;;;5.93;77.53
38612;BME280;24368;52.156;20.788;2024-03-17T02:46:18;100742.08;;;5.92;77.66
38612;BME280;24368;52.156;20.788;2024-03-17T02:51:22;100739.89;;;5.89;78.03
38612;BME280;24368;52.156;20.788;2024-03-17T02:56:42;100748.89;;;5.71;78.49
38612;BME280;24368;52.156;20.788;2024-03-17T03:01:44;100751.26;;;5.60;79.51
38612;BME280;24368;52.156;20.788;2024-03-17T03:06:49;100753.33;;;5.59;80.08
38612;BME280;24368;52.156;20.788;2024-03-17T03:11:51;100752.06;;;5.42;81.69
38612;BME280;24368;52.156;20.788;2024-03-17T03:16:53;100758.52;;;5.38;83.27
38612;BME280;24368;52.156;20.788;2024-03-17T03:22:12;100755.69;;;5.33;85.20
38612;BME280;24368;52.156;20.788;2024-03-17T03:27:14;100762.27;;;5.33;86.25
38612;BME280;24368;52.156;20.788;2024-03-17T03:32:16;100751.91;;;5.24;87.11
38612;BME280;24368;52.156;20.788;2024-03-17T03:37:19;100746.02;;;5.21;86.83
38612;BME280;24368;52.156;20.788;2024-03-17T03:42:20;100748.32;;;5.12;86.51
38612;BME280;24368;52.156;20.788;2024-03-17T03:47:22;100750.47;;;5.11;85.26
38612;BME280;24368;52.156;20.788;2024-03-17T03:52:24;100746.56;;;5.12;84.32
38612;BME280;24368;52.156;20.788;2024-03-17T03:57:26;100751.08;;;5.11;83.29
38612;BME280;24368;52.156;20.788;2024-03-17T04:02:31;100747.91;;;5.12;82.61
38612;BME280;24368;52.156;20.788;2024-03-17T04:07:50;100743.30;;;5.09;82.31
38612;BME280;24368;52.156;20.788;2024-03-17T04:13:10;100736.66;;;5.10;82.15
38612;BME280;24368;52.156;20.788;2024-03-17T04:18:12;100736.02;;;5.06;81.91
38612;BME280;24368;52.156;20.788;2024-03-17T04:23:14;100747.08;;;4.95;82.52
38612;BME280;24368;52.156;20.788;2024-03-17T04:28:16;100759.71;;;4.84;82.97
38612;BME280;24368;52.156;20.788;2024-03-17T04:33:18;100761.98;;;4.69;84.25
38612;BME280;24368;52.156;20.788;2024-03-17T04:38:19;100758.09;;;4.60;85.00
38612;BME280;24368;52.156;20.788;2024-03-17T04:43:24;100755.30;;;4.58;85.15
38612;BME280;24368;52.156;20.788;2024-03-17T04:48:26;100762.92;;;4.51;85.02
38612;BME280;24368;52.156;20.788;2024-03-17T04:53:29;100764.05;;;4.49;85.21
38612;BME280;24368;52.156;20.788;2024-03-17T04:58:31;100764.70;;;4.42;85.50
38612;BME280;24368;52.156;20.788;2024-03-17T05:03:34;100763.07;;;4.33;86.06
38612;BME280;24368;52.156;20.788;2024-03-17T05:08:36;100764.28;;;4.26;87.12
38612;BME280;24368;52.156;20.788;2024-03-17T05:13:57;100770.52;;;4.16;87.94
38612;BME280;24368;52.156;20.788;2024-03-17T05:19:01;100769.04;;;4.21;88.30
38612;BME280;24368;52.156;20.788;2024-03-17T05:24:03;100771.77;;;4.23;88.29
38612;BME280;24368;52.156;20.788;2024-03-17T05:29:05;100773.61;;;4.27;87.25
38612;BME280;24368;52.156;20.788;2024-03-17T05:34:24;100775.75;;;4.23;86.65
38612;BME280;24368;52.156;20.788;2024-03-17T05:43:34;100777.88;;;4.25;86.42
38612;BME280;24368;52.156;20.788;2024-03-17T05:48:40;100781.09;;;4.31;85.89
38612;BME280;24368;52.156;20.788;2024-03-17T05:53:42;100782.13;;;4.35;85.81
38612;BME280;24368;52.156;20.788;2024-03-17T05:58:45;100775.83;;;4.43;85.27
38612;BME280;24368;52.156;20.788;2024-03-17T06:03:48;100778.98;;;4.43;84.19
38612;BME280;24368;52.156;20.788;2024-03-17T06:08:50;100773.30;;;4.45;83.50
38612;BME280;24368;52.156;20.788;2024-03-17T06:13:52;100769.94;;;4.52;82.56
38612;BME280;24368;52.156;20.788;2024-03-17T06:18:54;100766.69;;;4.54;80.83
38612;BME280;24368;52.156;20.788;2024-03-17T06:24:16;100771.90;;;4.68;81.02
38612;BME280;24368;52.156;20.788;2024-03-17T06:29:17;100780.41;;;4.72;79.48
38612;BME280;24368;52.156;20.788;2024-03-17T06:34:20;100783.33;;;4.82;78.56
38612;BME280;24368;52.156;20.788;2024-03-17T06:39:25;100779.78;;;4.88;77.00
38612;BME280;24368;52.156;20.788;2024-03-17T06:44:45;100781.82;;;4.94;75.77
38612;BME280;24368;52.156;20.788;2024-03-17T06:49:50;100789.31;;;4.96;76.40
38612;BME280;24368;52.156;20.788;2024-03-17T06:55:10;100791.85;;;5.04;76.87
38612;BME280;24368;52.156;20.788;2024-03-17T07:00:15;100798.90;;;5.09;76.85
38612;BME280;24368;52.156;20.788;2024-03-17T07:05:20;100797.11;;;5.09;76.92
38612;BME280;24368;52.156;20.788;2024-03-17T07:10:22;100791.60;;;5.11;77.16
38612;BME280;24368;52.156;20.788;2024-03-17T07:15:25;100796.39;;;5.16;76.63
38612;BME280;24368;52.156;20.788;2024-03-17T07:20:27;100801.96;;;5.15;76.88
38612;BME280;24368;52.156;20.788;2024-03-17T07:25:28;100805.33;;;5.18;76.43
38612;BME280;24368;52.156;20.788;2024-03-17T07:30:30;100813.07;;;5.21;76.30
38612;BME280;24368;52.156;20.788;2024-03-17T07:35:33;100818.98;;;5.17;76.21
38612;BME280;24368;52.156;20.788;2024-03-17T07:40:34;100816.37;;;5.23;76.42
38612;BME280;24368;52.156;20.788;2024-03-17T07:46:02;100818.02;;;5.16;76.62
38612;BME280;24368;52.156;20.788;2024-03-17T07:51:13;100824.09;;;5.15;76.96
38612;BME280;24368;52.156;20.788;2024-03-17T07:56:22;100822.03;;;5.23;77.27
38612;BME280;24368;52.156;20.788;2024-03-17T08:01:25;100824.20;;;5.22;77.41
38612;BME280;24368;52.156;20.788;2024-03-17T08:06:28;100820.42;;;5.26;78.25
38612;BME280;24368;52.156;20.788;2024-03-17T08:11:30;100817.59;;;5.29;78.65
38612;BME280;24368;52.156;20.788;2024-03-17T08:16:32;100818.43;;;5.35;78.64
38612;BME280;24368;52.156;20.788;2024-03-17T08:21:53;100820.83;;;5.42;78.49
38612;BME280;24368;52.156;20.788;2024-03-17T08:26:54;100816.66;;;5.46;78.10
38612;BME280;24368;52.156;20.788;2024-03-17T08:31:56;100819.60;;;5.45;79.19
38612;BME280;24368;52.156;20.788;2024-03-17T08:36:59;100822.85;;;5.39;79.29
38612;BME280;24368;52.156;20.788;2024-03-17T08:42:01;100819.83;;;5.40;78.84
38612;BME280;24368;52.156;20.788;2024-03-17T08:47:03;100820.27;;;5.40;79.32
38612;BME280;24368;52.156;20.788;2024-03-17T08:52:05;100814.89;;;5.54;79.64
38612;BME280;24368;52.156;20.788;2024-03-17T08:57:07;100813.33;;;5.53;79.82
38612;BME280;24368;52.156;20.788;2024-03-17T09:11:29;100822.95;;;5.34;79.89
38612;BME280;24368;52.156;20.788;2024-03-17T09:16:31;100830.92;;;5.29;80.53
38612;BME280;24368;52.156;20.788;2024-03-17T09:21:36;100843.52;;;4.68;84.54
38612;BME280;24368;52.156;20.788;2024-03-17T09:26:39;100842.55;;;4.24;86.45
38612;BME280;24368;52.156;20.788;2024-03-17T09:31:41;100834.00;;;4.33;89.04
38612;BME280;24368;52.156;20.788;2024-03-17T09:36:43;100840.44;;;4.62;89.56
38612;BME280;24368;52.156;20.788;2024-03-17T09:41:46;100833.15;;;4.79;87.15
38612;BME280;24368;52.156;20.788;2024-03-17T09:46:48;100828.05;;;4.89;85.69
38612;BME280;24368;52.156;20.788;2024-03-17T09:51:53;100831.98;;;4.97;84.95
38612;BME280;24368;52.156;20.788;2024-03-17T09:56:58;100839.70;;;5.12;84.70
38612;BME280;24368;52.156;20.788;2024-03-17T10:02:02;100834.52;;;5.17;84.66
38612;BME280;24368;52.156;20.788;2024-03-17T10:07:05;100845.25;;;5.10;84.45
38612;BME280;24368;52.156;20.788;2024-03-17T10:12:26;100841.39;;;5.08;85.02
38612;BME280;24368;52.156;20.788;2024-03-17T10:17:30;100845.26;;;5.18;84.46
38612;BME280;24368;52.156;20.788;2024-03-17T10:22:32;100839.89;;;5.35;83.27
38612;BME280;24368;52.156;20.788;2024-03-17T10:27:34;100837.55;;;5.23;83.49
38612;BME280;24368;52.156;20.788;2024-03-17T10:32:36;100838.39;;;5.22;83.87
38612;BME280;24368;52.156;20.788;2024-03-17T10:38:01;100840.67;;;5.26;83.65
38612;BME280;24368;52.156;20.788;2024-03-17T10:43:06;100840.68;;;5.24;84.21
38612;BME280;24368;52.156;20.788;2024-03-17T10:48:08;100845.34;;;5.27;83.13
38612;BME280;24368;52.156;20.788;2024-03-17T10:53:14;100839.83;;;5.33;81.78
38612;BME280;24368;52.156;20.788;2024-03-17T10:58:34;100830.92;;;5.45;81.06
38612;BME280;24368;52.156;20.788;2024-03-17T11:03:40;100829.75;;;5.68;79.49
38612;BME280;24368;52.156;20.788;2024-03-17T11:08:42;100829.20;;;5.90;78.34
38612;BME280;24368;52.156;20.788;2024-03-17T11:13:48;100820.61;;;5.84;77.72
38612;BME280;24368;52.156;20.788;2024-03-17T11:18:50;100829.28;;;5.71;75.73
38612;BME280;24368;52.156;20.788;2024-03-17T11:23:57;100831.29;;;5.58;74.75
38612;BME280;24368;52.156;20.788;2024-03-17T11:29:00;100828.98;;;5.46;74.79
38612;BME280;24368;52.156;20.788;2024-03-17T11:34:04;100832.46;;;5.39;74.67
38612;BME280;24368;52.156;20.788;2024-03-17T11:39:09;100831.77;;;5.33;75.29
38612;BME280;24368;52.156;20.788;2024-03-17T11:44:29;100833.45;;;5.41;75.69
38612;BME280;24368;52.156;20.788;2024-03-17T11:49:40;100839.59;;;5.29;75.74
38612;BME280;24368;52.156;20.788;2024-03-17T11:55:00;100843.89;;;4.99;77.57
38612;BME280;24368;52.156;20.788;2024-03-17T12:00:04;100843.55;;;4.83;78.34
38612;BME280;24368;52.156;20.788;2024-03-17T12:05:08;100851.52;;;4.80;79.03
38612;BME280;24368;52.156;20.788;2024-03-17T12:10:14;100849.91;;;4.77;79.62
38612;BME280;24368;52.156;20.788;2024-03-17T12:15:19;100845.95;;;4.87;78.99
38612;BME280;24368;52.156;20.788;2024-03-17T12:20:26;100841.58;;;4.90;78.37
38612;BME280;24368;52.156;20.788;2024-03-17T12:25:27;100841.14;;;4.99;77.85
38612;BME280;24368;52.156;20.788;2024-03-17T12:30:33;100838.52;;;5.08;77.70
38612;BME280;24368;52.156;20.788;2024-03-17T12:35:35;100840.46;;;5.08;77.29
38612;BME280;24368;52.156;20.788;2024-03-17T12:40:36;100838.94;;;4.98;76.01
38612;BME280;24368;52.156;20.788;2024-03-17T12:45:38;100840.50;;;4.87;75.07
38612;BME280;24368;52.156;20.788;2024-03-17T12:50:46;100837.66;;;4.88;75.36
38612;BME280;24368;52.156;20.788;2024-03-17T12:55:54;100838.04;;;4.92;76.29
38612;BME280;24368;52.156;20.788;2024-03-17T13:01:14;100835.17;;;4.90;77.46
38612;BME280;24368;52.156;20.788;2024-03-17T13:06:23;100833.36;;;4.97;76.32
38612;BME280;24368;52.156;20.788;2024-03-17T13:11:26;100827.38;;;5.19;75.14
38612;BME280;24368;52.156;20.788;2024-03-17T13:16:30;100838.25;;;5.19;74.72
38612;BME280;24368;52.156;20.788;2024-03-17T13:21:33;100849.92;;;4.93;76.31
38612;BME280;24368;52.156;20.788;2024-03-17T13:26:34;100851.48;;;4.70;77.14
38612;BME280;24368;52.156;20.788;2024-03-17T13:31:36;100857.13;;;4.64;78.94
38612;BME280;24368;52.156;20.788;2024-03-17T13:36:38;100851.63;;;4.67;79.43
38612;BME280;24368;52.156;20.788;2024-03-17T13:41:40;100851.80;;;4.59;79.92
38612;BME280;24368;52.156;20.788;2024-03-17T13:46:42;100854.53;;;4.58;78.65
38612;BME280;24368;52.156;20.788;2024-03-17T13:51:44;100862.24;;;4.55;77.95
38612;BME280;24368;52.156;20.788;2024-03-17T13:56:49;100860.05;;;4.63;78.09
38612;BME280;24368;52.156;20.788;2024-03-17T14:01:51;100860.28;;;4.62;78.48
38612;BME280;24368;52.156;20.788;2024-03-17T14:06:53;100860.46;;;4.57;79.23
38612;BME280;24368;52.156;20.788;2024-03-17T14:12:14;100860.91;;;4.55;79.72
38612;BME280;24368;52.156;20.788;2024-03-17T14:17:15;100863.67;;;4.55;80.35
38612;BME280;24368;52.156;20.788;2024-03-17T14:22:17;100857.13;;;4.61;80.83
38612;BME280;24368;52.156;20.788;2024-03-17T14:27:19;100858.89;;;4.65;81.01
38612;BME280;24368;52.156;20.788;2024-03-17T14:32:22;100878.66;;;4.15;84.14
38612;BME280;24368;52.156;20.788;2024-03-17T14:37:43;100882.80;;;3.63;88.86
38612;BME280;24368;52.156;20.788;2024-03-17T14:42:50;100882.21;;;3.46;91.09
38612;BME280;24368;52.156;20.788;2024-03-17T14:47:52;100880.30;;;3.44;91.39
38612;BME280;24368;52.156;20.788;2024-03-17T14:52:54;100884.71;;;3.38;91.93
38612;BME280;24368;52.156;20.788;2024-03-17T14:57:56;100885.98;;;3.28;92.81
38612;BME280;24368;52.156;20.788;2024-03-17T15:02:58;100882.05;;;3.16;93.32
38612;BME280;24368;52.156;20.788;2024-03-17T15:08:00;100886.63;;;3.18;93.32
38612;BME280;24368;52.156;20.788;2024-03-17T15:13:03;100885.08;;;3.20;93.24
38612;BME280;24368;52.156;20.788;2024-03-17T15:18:06;100883.28;;;3.20;93.84
38612;BME280;24368;52.156;20.788;2024-03-17T15:23:09;100892.89;;;3.23;94.58
38612;BME280;24368;52.156;20.788;2024-03-17T15:28:11;100900.55;;;3.15;95.66
38612;BME280;24368;52.156;20.788;2024-03-17T15:33:14;100902.27;;;3.07;96.33
38612;BME280;24368;52.156;20.788;2024-03-17T15:38:15;100903.02;;;2.99;96.20
38612;BME280;24368;52.156;20.788;2024-03-17T15:43:17;100902.46;;;2.99;96.74
38612;BME280;24368;52.156;20.788;2024-03-17T15:48:19;100904.98;;;3.06;96.73
38612;BME280;24368;52.156;20.788;2024-03-17T15:53:21;100910.99;;;3.10;96.35
38612;BME280;24368;52.156;20.788;2024-03-17T15:58:25;100916.39;;;3.10;95.95
38612;BME280;24368;52.156;20.788;2024-03-17T16:03:31;100923.23;;;3.16;96.39
38612;BME280;24368;52.156;20.788;2024-03-17T16:08:44;100934.27;;;3.08;96.45
38612;BME280;24368;52.156;20.788;2024-03-17T16:13:47;100945.77;;;3.00;97.17
38612;BME280;24368;52.156;20.788;2024-03-17T16:18:49;100956.27;;;2.79;96.77
38612;BME280;24368;52.156;20.788;2024-03-17T16:23:58;100958.92;;;2.46;96.62
38612;BME280;24368;52.156;20.788;2024-03-17T16:29:01;100962.95;;;2.34;97.48
38612;BME280;24368;52.156;20.788;2024-03-17T16:34:20;100964.40;;;2.42;97.75
38612;BME280;24368;52.156;20.788;2024-03-17T16:39:43;100968.31;;;2.50;97.92
38612;BME280;24368;52.156;20.788;2024-03-17T16:44:56;100972.93;;;2.60;98.39
38612;BME280;24368;52.156;20.788;2024-03-17T16:50:00;100975.91;;;2.49;98.35
38612;BME280;24368;52.156;20.788;2024-03-17T16:55:07;100976.11;;;2.38;98.85
38612;BME280;24368;52.156;20.788;2024-03-17T17:00:11;100974.58;;;2.50;99.40
38612;BME280;24368;52.156;20.788;2024-03-17T17:05:18;100979.69;;;2.58;99.29
38612;BME280;24368;52.156;20.788;2024-03-17T17:10:20;100987.83;;;2.52;99.23
38612;BME280;24368;52.156;20.788;2024-03-17T17:15:29;100988.61;;;2.40;98.36
38612;BME280;24368;52.156;20.788;2024-03-17T17:20:30;100992.84;;;2.37;97.20
38612;BME280;24368;52.156;20.788;2024-03-17T17:25:35;100995.55;;;2.27;95.75
38612;BME280;24368;52.156;20.788;2024-03-17T17:30:37;100989.66;;;2.20;94.26
38612;BME280;24368;52.156;20.788;2024-03-17T17:35:39;100991.13;;;2.02;93.34
38612;BME280;24368;52.156;20.788;2024-03-17T17:40:41;100987.58;;;1.93;92.94
38612;BME280;24368;52.156;20.788;2024-03-17T17:45:42;100988.71;;;1.83;92.15
38612;BME280;24368;52.156;20.788;2024-03-17T17:50:45;100993.09;;;1.87;91.37
38612;BME280;24368;52.156;20.788;2024-03-17T17:55:47;100996.11;;;1.83;91.41
38612;BME280;24368;52.156;20.788;2024-03-17T18:00:56;100997.05;;;1.78;90.96
38612;BME280;24368;52.156;20.788;2024-03-17T18:05:59;100995.66;;;1.84;90.98
38612;BME280;24368;52.156;20.788;2024-03-17T18:11:01;100997.31;;;1.83;91.10
38612;BME280;24368;52.156;20.788;2024-03-17T18:16:22;101000.63;;;1.84;91.07
38612;BME280;24368;52.156;20.788;2024-03-17T18:21:24;100996.95;;;1.78;91.04
38612;BME280;24368;52.156;20.788;2024-03-17T18:26:28;100999.63;;;1.68;90.84
38612;BME280;24368;52.156;20.788;2024-03-17T18:31:47;100997.14;;;1.70;90.49
38612;BME280;24368;52.156;20.788;2024-03-17T18:47:19;100998.47;;;1.73;89.68
38612;BME280;24368;52.156;20.788;2024-03-17T18:52:21;100992.10;;;1.71;89.60
38612;BME280;24368;52.156;20.788;2024-03-17T18:57:22;100993.45;;;1.66;89.74
38612;BME280;24368;52.156;20.788;2024-03-17T19:02:24;100993.10;;;1.64;89.55
38612;BME280;24368;52.156;20.788;2024-03-17T19:07:30;100987.45;;;1.68;89.55
38612;BME280;24368;52.156;20.788;2024-03-17T19:12:39;100990.10;;;1.68;89.55
38612;BME280;24368;52.156;20.788;2024-03-17T19:17:41;100987.84;;;1.67;89.69
38612;BME280;24368;52.156;20.788;2024-03-17T19:22:43;100993.68;;;1.62;89.65
38612;BME280;24368;52.156;20.788;2024-03-17T19:27:48;100987.13;;;1.68;89.84
38612;BME280;24368;52.156;20.788;2024-03-17T19:32:50;100984.42;;;1.70;89.11
38612;BME280;24368;52.156;20.788;2024-03-17T19:37:51;100978.60;;;1.68;89.33
38612;BME280;24368;52.156;20.788;2024-03-17T19:42:54;100979.02;;;1.68;88.86
38612;BME280;24368;52.156;20.788;2024-03-17T19:47:56;100984.85;;;1.66;88.39
38612;BME280;24368;52.156;20.788;2024-03-17T19:52:58;100988.58;;;1.69;87.98
38612;BME280;24368;52.156;20.788;2024-03-17T19:57:59;100989.62;;;1.67;87.81
38612;BME280;24368;52.156;20.788;2024-03-17T20:03:01;100993.91;;;1.61;87.57
38612;BME280;24368;52.156;20.788;2024-03-17T20:08:04;100998.33;;;1.61;87.40
38612;BME280;24368;52.156;20.788;2024-03-17T20:13:07;100992.48;;;1.57;87.57
38612;BME280;24368;52.156;20.788;2024-03-17T20:18:11;100991.54;;;1.48;88.07
38612;BME280;24368;52.156;20.788;2024-03-17T20:23:14;100986.13;;;1.46;88.73
38612;BME280;24368;52.156;20.788;2024-03-17T20:28:16;100984.67;;;1.42;89.23
38612;BME280;24368;52.156;20.788;2024-03-17T20:33:18;100979.57;;;1.44;88.86
38612;BME280;24368;52.156;20.788;2024-03-17T20:38:20;100983.46;;;1.54;88.66
38612;BME280;24368;52.156;20.788;2024-03-17T20:43:22;100980.84;;;1.46;88.56
38612;BME280;24368;52.156;20.788;2024-03-17T20:48:24;100974.19;;;1.40;87.88
38612;BME280;24368;52.156;20.788;2024-03-17T20:53:26;100968.91;;;1.28;87.94
38612;BME280;24368;52.156;20.788;2024-03-17T20:58:31;100967.13;;;1.24;87.78
38612;BME280;24368;52.156;20.788;2024-03-17T21:03:33;100963.36;;;1.27;88.06
38612;BME280;24368;52.156;20.788;2024-03-17T21:08:37;100955.13;;;1.27;88.30
38612;BME280;24368;52.156;20.788;2024-03-17T21:14:02;100951.98;;;1.22;88.42
38612;BME280;24368;52.156;20.788;2024-03-17T21:19:04;100950.54;;;1.23;88.98
38612;BME280;24368;52.156;20.788;2024-03-17T21:24:06;100944.55;;;1.13;89.35
38612;BME280;24368;52.156;20.788;2024-03-17T21:29:25;100946.34;;;1.15;89.44
38612;BME280;24368;52.156;20.788;2024-03-17T21:34:45;100943.51;;;1.05;90.10
38612;BME280;24368;52.156;20.788;2024-03-17T21:39:48;100943.08;;;1.06;90.41
38612;BME280;24368;52.156;20.788;2024-03-17T21:44:52;100939.24;;;1.04;90.41
38612;BME280;24368;52.156;20.788;2024-03-17T21:49:54;100941.17;;;1.02;90.48
38612;BME280;24368;52.156;20.788;2024-03-17T21:54:56;100943.98;;;1.00;90.46
38612;BME280;24368;52.156;20.788;2024-03-17T21:59:58;100946.40;;;0.97;90.25
38612;BME280;24368;52.156;20.788;2024-03-17T22:04:59;100948.41;;;1.05;89.77
38612;BME280;24368;52.156;20.788;2024-03-17T22:10:01;100942.89;;;1.06;89.09
38612;BME280;24368;52.156;20.788;2024-03-17T22:15:03;100934.49;;;1.06;87.94
38612;BME280;24368;52.156;20.788;2024-03-17T22:20:09;100932.63;;;0.99;87.54
38612;BME280;24368;52.156;20.788;2024-03-17T22:25:12;100920.05;;;0.96;87.34
38612;BME280;24368;52.156;20.788;2024-03-17T22:30:14;100915.91;;;0.97;87.37
38612;BME280;24368;52.156;20.788;2024-03-17T22:35:16;100910.67;;;0.91;87.11
38612;BME280;24368;52.156;20.788;2024-03-17T22:40:17;100913.89;;;0.86;86.90
38612;BME280;24368;52.156;20.788;2024-03-17T22:45:22;100913.23;;;0.90;86.57
38612;BME280;24368;52.156;20.788;2024-03-17T22:50:24;100914.95;;;0.90;86.61
38612;BME280;24368;52.156;20.788;2024-03-17T22:55:25;100915.29;;;0.82;86.50
38612;BME280;24368;52.156;20.788;2024-03-17T23:00:27;100911.95;;;0.82;86.31
38612;BME280;24368;52.156;20.788;2024-03-17T23:05:43;100906.64;;;0.85;86.64
38612;BME280;24368;52.156;20.788;2024-03-17T23:10:45;100905.67;;;0.80;86.71
38612;BME280;24368;52.156;20.788;2024-03-17T23:16:05;100901.41;;;0.74;87.16
38612;BME280;24368;52.156;20.788;2024-03-17T23:21:06;100903.20;;;0.68;87.38
38612;BME280;24368;52.156;20.788;2024-03-17T23:26:09;100904.86;;;0.67;87.45
38612;BME280;24368;52.156;20.788;2024-03-17T23:31:15;100900.13;;;0.73;87.69
38612;BME280;24368;52.156;20.788;2024-03-17T23:36:17;100896.80;;;0.71;87.86
38612;BME280;24368;52.156;20.788;2024-03-17T23:41:19;100892.20;;;0.67;88.15
38612;BME280;24368;52.156;20.788;2024-03-17T23:46:21;100892.27;;;0.63;88.63
38612;BME280;24368;52.156;20.788;2024-03-17T23:51:24;100890.59;;;0.60;88.93
38612;BME280;24368;52.156;20.788;2024-03-17T23:56:25;100888.02;;;0.55;89.38
